sensor_id;sensor_type;location;lat;lon;timestamp;temperature;humidity
22850;DHT22;11591;44.792;10.358;2023-07-29T05:24:49;24.20;99.90
22850;DHT22;11591;44.792;10.358;2023-07-29T05:27:15;24.20;99.90
22850;DHT22;11591;44.792;10.358;2023-07-29T05:29:41;24.20;99.90
22850;DHT22;11591;44.792;10.358;2023-07-29T05:32:07;24.10;99.90
22850;DHT22;11591;44.792;10.358;2023-07-29T05:34:33;24.10;99.90
22850;DHT22;11591;44.792;10.358;2023-07-29T05:36:59;24.10;99.90
22850;DHT22;11591;44.792;10.358;2023-07-29T05:39:25;24.10;99.90
22850;DHT22;11591;44.792;10.358;2023-07-29T05:41:51;24.10;99.90
22850;DHT22;11591;44.792;10.358;2023-07-29T05:44:17;24.20;99.90
22850;DHT22;11591;44.792;10.358;2023-07-29T05:46:43;24.30;99.90
22850;DHT22;11591;44.792;10.358;2023-07-29T05:49:09;24.30;99.90
22850;DHT22;11591;44.792;10.358;2023-07-29T05:51:35;24.30;99.90
22850;DHT22;11591;44.792;10.358;2023-07-29T05:54:00;24.50;99.90
22850;DHT22;11591;44.792;10.358;2023-07-29T05:56:26;24.50;99.90
22850;DHT22;11591;44.792;10.358;2023-07-29T05:58:52;24.60;99.90
22850;DHT22;11591;44.792;10.358;2023-07-29T06:01:19;24.70;99.90
22850;DHT22;11591;44.792;10.358;2023-07-29T06:03:47;24.80;99.90
22850;DHT22;11591;44.792;10.358;2023-07-29T06:06:13;24.80;99.90
22850;DHT22;11591;44.792;10.358;2023-07-29T06:08:39;24.90;99.90
22850;DHT22;11591;44.792;10.358;2023-07-29T06:11:04;24.90;99.90
22850;DHT22;11591;44.792;10.358;2023-07-29T06:13:32;24.90;99.90
22850;DHT22;11591;44.792;10.358;2023-07-29T06:15:58;25.00;99.90
22850;DHT22;11591;44.792;10.358;2023-07-29T06:18:25;25.00;99.90
22850;DHT22;11591;44.792;10.358;2023-07-29T06:20:51;25.10;99.90
22850;DHT22;11591;44.792;10.358;2023-07-29T06:23:17;25.10;99.90
22850;DHT22;11591;44.792;10.358;2023-07-29T06:25:43;25.10;99.90
22850;DHT22;11591;44.792;10.358;2023-07-29T06:28:09;25.10;99.90
22850;DHT22;11591;44.792;10.358;2023-07-29T06:30:35;25.20;99.90
22850;DHT22;11591;44.792;10.358;2023-07-29T06:33:01;25.20;99.90
22850;DHT22;11591;44.792;10.358;2023-07-29T06:35:29;25.20;99.90
22850;DHT22;11591;44.792;10.358;2023-07-29T06:37:54;25.20;99.90
22850;DHT22;11591;44.792;10.358;2023-07-29T06:40:20;25.30;99.90
22850;DHT22;11591;44.792;10.358;2023-07-29T06:42:46;25.30;99.90
22850;DHT22;11591;44.792;10.358;2023-07-29T06:45:12;25.30;99.90
22850;DHT22;11591;44.792;10.358;2023-07-29T06:47:38;25.30;99.90
22850;DHT22;11591;44.792;10.358;2023-07-29T06:50:04;25.30;99.90
22850;DHT22;11591;44.792;10.358;2023-07-29T06:52:30;25.30;99.90
22850;DHT22;11591;44.792;10.358;2023-07-29T06:54:56;25.30;99.90
22850;DHT22;11591;44.792;10.358;2023-07-29T06:57:22;25.30;99.90
22850;DHT22;11591;44.792;10.358;2023-07-29T06:59:47;25.30;99.90
22850;DHT22;11591;44.792;10.358;2023-07-29T07:02:13;25.30;99.90
22850;DHT22;11591;44.792;10.358;2023-07-29T07:04:39;25.30;99.90
22850;DHT22;11591;44.792;10.358;2023-07-29T07:07:05;25.30;99.90
22850;DHT22;11591;44.792;10.358;2023-07-29T07:09:31;25.30;99.90
22850;DHT22;11591;44.792;10.358;2023-07-29T07:11:56;25.40;99.90
22850;DHT22;11591;44.792;10.358;2023-07-29T07:14:22;25.40;99.90
22850;DHT22;11591;44.792;10.358;2023-07-29T07:16:48;25.40;99.90
22850;DHT22;11591;44.792;10.358;2023-07-29T07:19:14;25.40;99.90
22850;DHT22;11591;44.792;10.358;2023-07-29T07:21:40;25.50;99.90
22850;DHT22;11591;44.792;10.358;2023-07-29T07:24:05;25.60;99.90
22850;DHT22;11591;44.792;10.358;2023-07-29T07:26:31;25.60;99.90
22850;DHT22;11591;44.792;10.358;2023-07-29T07:28:57;25.60;99.90
22850;DHT22;11591;44.792;10.358;2023-07-29T07:31:23;25.50;99.90
22850;DHT22;11591;44.792;10.358;2023-07-29T07:33:49;25.60;99.90
22850;DHT22;11591;44.792;10.358;2023-07-29T07:36:14;25.60;99.90
22850;DHT22;11591;44.792;10.358;2023-07-29T07:38:41;25.70;99.90
22850;DHT22;11591;44.792;10.358;2023-07-29T07:41:07;25.80;99.90
22850;DHT22;11591;44.792;10.358;2023-07-29T07:43:33;25.90;99.90
22850;DHT22;11591;44.792;10.358;2023-07-29T07:45:59;25.80;99.90
22850;DHT22;11591;44.792;10.358;2023-07-29T07:48:26;25.80;99.90
22850;DHT22;11591;44.792;10.358;2023-07-29T07:50:52;25.80;99.90
22850;DHT22;11591;44.792;10.358;2023-07-29T07:53:17;25.80;99.90
22850;DHT22;11591;44.792;10.358;2023-07-29T07:55:45;25.90;99.90
22850;DHT22;11591;44.792;10.358;2023-07-29T07:58:11;25.90;99.90
22850;DHT22;11591;44.792;10.358;2023-07-29T08:00:37;25.90;99.90
22850;DHT22;11591;44.792;10.358;2023-07-29T08:03:03;26.00;99.90
22850;DHT22;11591;44.792;10.358;2023-07-29T08:05:29;26.10;99.90
22850;DHT22;11591;44.792;10.358;2023-07-29T08:07:55;26.20;99.90
22850;DHT22;11591;44.792;10.358;2023-07-29T08:10:21;26.20;99.90
22850;DHT22;11591;44.792;10.358;2023-07-29T08:12:47;26.30;99.90
22850;DHT22;11591;44.792;10.358;2023-07-29T08:15:13;26.40;99.90
22850;DHT22;11591;44.792;10.358;2023-07-29T08:17:38;26.50;99.90
22850;DHT22;11591;44.792;10.358;2023-07-29T08:20:05;26.50;99.90
22850;DHT22;11591;44.792;10.358;2023-07-29T08:22:31;26.50;99.90
22850;DHT22;11591;44.792;10.358;2023-07-29T08:24:57;26.60;99.90
22850;DHT22;11591;44.792;10.358;2023-07-29T08:27:23;26.60;99.90
22850;DHT22;11591;44.792;10.358;2023-07-29T08:29:49;26.70;99.90
22850;DHT22;11591;44.792;10.358;2023-07-29T08:32:14;26.60;99.90
22850;DHT22;11591;44.792;10.358;2023-07-29T08:34:40;26.70;99.90
22850;DHT22;11591;44.792;10.358;2023-07-29T08:37:07;26.70;99.90
22850;DHT22;11591;44.792;10.358;2023-07-29T08:39:33;26.80;99.90
22850;DHT22;11591;44.792;10.358;2023-07-29T08:42:07;26.80;99.90
22850;DHT22;11591;44.792;10.358;2023-07-29T08:44:43;26.90;99.90
22850;DHT22;11591;44.792;10.358;2023-07-29T08:47:11;26.90;99.90
22850;DHT22;11591;44.792;10.358;2023-07-29T08:49:39;26.90;99.90
22850;DHT22;11591;44.792;10.358;2023-07-29T08:52:07;26.90;99.90
22850;DHT22;11591;44.792;10.358;2023-07-29T08:54:33;27.00;99.90
22850;DHT22;11591;44.792;10.358;2023-07-29T08:56:59;27.00;99.90
22850;DHT22;11591;44.792;10.358;2023-07-29T08:59:26;27.00;99.90
22850;DHT22;11591;44.792;10.358;2023-07-29T09:01:54;27.10;99.90
22850;DHT22;11591;44.792;10.358;2023-07-29T09:04:22;27.20;99.90
22850;DHT22;11591;44.792;10.358;2023-07-29T09:06:50;27.20;99.90
22850;DHT22;11591;44.792;10.358;2023-07-29T09:09:16;27.20;99.90
22850;DHT22;11591;44.792;10.358;2023-07-29T09:11:43;27.30;99.90
22850;DHT22;11591;44.792;10.358;2023-07-29T09:14:10;27.30;99.90
22850;DHT22;11591;44.792;10.358;2023-07-29T09:16:36;27.40;99.90
22850;DHT22;11591;44.792;10.358;2023-07-29T09:19:03;27.40;99.90
22850;DHT22;11591;44.792;10.358;2023-07-29T09:21:29;27.50;99.90
22850;DHT22;11591;44.792;10.358;2023-07-29T09:23:55;27.50;99.90
22850;DHT22;11591;44.792;10.358;2023-07-29T09:26:27;27.60;99.90
22850;DHT22;11591;44.792;10.358;2023-07-29T09:28:55;27.60;99.90
22850;DHT22;11591;44.792;10.358;2023-07-29T09:31:26;27.60;99.90
22850;DHT22;11591;44.792;10.358;2023-07-29T09:33:59;27.60;99.90
22850;DHT22;11591;44.792;10.358;2023-07-29T09:36:26;27.60;99.90
22850;DHT22;11591;44.792;10.358;2023-07-29T09:38:53;27.60;99.90
22850;DHT22;11591;44.792;10.358;2023-07-29T09:41:22;27.60;99.90
22850;DHT22;11591;44.792;10.358;2023-07-29T09:43:55;27.60;99.90
22850;DHT22;11591;44.792;10.358;2023-07-29T09:46:23;27.60;99.90
22850;DHT22;11591;44.792;10.358;2023-07-29T09:48:53;27.60;99.90
22850;DHT22;11591;44.792;10.358;2023-07-29T09:51:23;27.60;99.90
22850;DHT22;11591;44.792;10.358;2023-07-29T09:53:50;27.60;99.90
22850;DHT22;11591;44.792;10.358;2023-07-29T09:56:16;27.60;99.90
22850;DHT22;11591;44.792;10.358;2023-07-29T09:58:44;27.70;99.90
22850;DHT22;11591;44.792;10.358;2023-07-29T10:01:11;27.60;99.90
22850;DHT22;11591;44.792;10.358;2023-07-29T10:03:37;27.60;99.90
22850;DHT22;11591;44.792;10.358;2023-07-29T10:06:04;27.70;99.90
22850;DHT22;11591;44.792;10.358;2023-07-29T10:08:31;27.80;99.90
22850;DHT22;11591;44.792;10.358;2023-07-29T10:11:01;27.80;99.90
22850;DHT22;11591;44.792;10.358;2023-07-29T10:13:28;27.90;99.90
22850;DHT22;11591;44.792;10.358;2023-07-29T10:15:54;27.90;99.90
22850;DHT22;11591;44.792;10.358;2023-07-29T10:18:22;28.00;99.90
22850;DHT22;11591;44.792;10.358;2023-07-29T10:20:50;28.10;99.90
22850;DHT22;11591;44.792;10.358;2023-07-29T10:23:18;28.20;99.90
22850;DHT22;11591;44.792;10.358;2023-07-29T10:25:49;28.20;99.90
22850;DHT22;11591;44.792;10.358;2023-07-29T10:28:17;28.30;99.90
22850;DHT22;11591;44.792;10.358;2023-07-29T10:30:45;28.20;99.90
22850;DHT22;11591;44.792;10.358;2023-07-29T10:33:12;28.30;99.90
22850;DHT22;11591;44.792;10.358;2023-07-29T10:35:38;28.30;99.90
22850;DHT22;11591;44.792;10.358;2023-07-29T10:38:05;28.40;99.90
22850;DHT22;11591;44.792;10.358;2023-07-29T10:43:37;28.40;99.90
22850;DHT22;11591;44.792;10.358;2023-07-29T10:46:15;28.40;99.90
22850;DHT22;11591;44.792;10.358;2023-07-29T10:48:44;28.40;99.90
22850;DHT22;11591;44.792;10.358;2023-07-29T10:51:36;28.40;99.90
22850;DHT22;11591;44.792;10.358;2023-07-29T10:54:14;28.40;99.90
22850;DHT22;11591;44.792;10.358;2023-07-29T10:56:42;28.30;99.90
22850;DHT22;11591;44.792;10.358;2023-07-29T11:01:57;28.30;99.90
22850;DHT22;11591;44.792;10.358;2023-07-29T11:04:25;28.40;99.90
22850;DHT22;11591;44.792;10.358;2023-07-29T11:09:52;28.50;99.90
22850;DHT22;11591;44.792;10.358;2023-07-29T11:15:15;28.70;99.90
22850;DHT22;11591;44.792;10.358;2023-07-29T11:20:11;28.70;99.90
22850;DHT22;11591;44.792;10.358;2023-07-29T11:22:38;28.80;99.90
22850;DHT22;11591;44.792;10.358;2023-07-29T11:25:05;28.80;99.90
22850;DHT22;11591;44.792;10.358;2023-07-29T11:27:32;28.90;99.90
22850;DHT22;11591;44.792;10.358;2023-07-29T11:29:59;29.00;99.90
22850;DHT22;11591;44.792;10.358;2023-07-29T11:32:25;29.10;99.90
22850;DHT22;11591;44.792;10.358;2023-07-29T11:34:51;29.10;99.90
22850;DHT22;11591;44.792;10.358;2023-07-29T11:37:17;29.20;99.90
22850;DHT22;11591;44.792;10.358;2023-07-29T11:39:46;29.30;99.90
22850;DHT22;11591;44.792;10.358;2023-07-29T11:42:16;29.40;99.90
22850;DHT22;11591;44.792;10.358;2023-07-29T11:44:42;29.50;99.90
22850;DHT22;11591;44.792;10.358;2023-07-29T11:47:09;29.60;99.90
22850;DHT22;11591;44.792;10.358;2023-07-29T11:49:35;29.60;99.90
22850;DHT22;11591;44.792;10.358;2023-07-29T11:52:03;29.60;99.90
22850;DHT22;11591;44.792;10.358;2023-07-29T11:54:29;29.60;99.90
22850;DHT22;11591;44.792;10.358;2023-07-29T11:56:55;29.70;99.90
22850;DHT22;11591;44.792;10.358;2023-07-29T11:59:21;29.70;99.90
22850;DHT22;11591;44.792;10.358;2023-07-29T12:01:47;29.80;99.90
22850;DHT22;11591;44.792;10.358;2023-07-29T12:04:14;29.90;99.90
22850;DHT22;11591;44.792;10.358;2023-07-29T12:06:40;29.90;99.90
22850;DHT22;11591;44.792;10.358;2023-07-29T12:09:06;30.00;99.90
22850;DHT22;11591;44.792;10.358;2023-07-29T12:11:33;30.10;99.90
22850;DHT22;11591;44.792;10.358;2023-07-29T12:14:02;30.10;99.90
22850;DHT22;11591;44.792;10.358;2023-07-29T12:16:28;30.20;99.90
22850;DHT22;11591;44.792;10.358;2023-07-29T12:19:00;30.20;99.90
22850;DHT22;11591;44.792;10.358;2023-07-29T12:21:26;30.30;99.90
22850;DHT22;11591;44.792;10.358;2023-07-29T12:23:52;30.30;99.90
22850;DHT22;11591;44.792;10.358;2023-07-29T12:26:18;30.30;99.90
22850;DHT22;11591;44.792;10.358;2023-07-29T12:28:47;30.30;99.90
22850;DHT22;11591;44.792;10.358;2023-07-29T12:31:16;30.20;99.90
22850;DHT22;11591;44.792;10.358;2023-07-29T12:33:42;30.20;99.90
22850;DHT22;11591;44.792;10.358;2023-07-29T12:36:07;30.30;99.90
22850;DHT22;11591;44.792;10.358;2023-07-29T12:38:33;30.30;99.90
22850;DHT22;11591;44.792;10.358;2023-07-29T12:41:01;30.30;99.90
22850;DHT22;11591;44.792;10.358;2023-07-29T12:43:26;30.40;99.90
22850;DHT22;11591;44.792;10.358;2023-07-29T12:45:52;30.40;99.90
22850;DHT22;11591;44.792;10.358;2023-07-29T12:48:18;30.40;99.90
22850;DHT22;11591;44.792;10.358;2023-07-29T12:50:44;30.50;99.90
22850;DHT22;11591;44.792;10.358;2023-07-29T12:53:10;30.50;99.90
22850;DHT22;11591;44.792;10.358;2023-07-29T12:55:36;30.40;99.90
22850;DHT22;11591;44.792;10.358;2023-07-29T12:58:02;30.50;99.90
22850;DHT22;11591;44.792;10.358;2023-07-29T13:00:29;30.60;99.90
22850;DHT22;11591;44.792;10.358;2023-07-29T13:02:55;30.70;99.90
22850;DHT22;11591;44.792;10.358;2023-07-29T13:05:21;30.70;99.90
22850;DHT22;11591;44.792;10.358;2023-07-29T13:07:47;30.80;99.90
22850;DHT22;11591;44.792;10.358;2023-07-29T13:10:13;30.80;99.90
22850;DHT22;11591;44.792;10.358;2023-07-29T13:12:39;30.70;99.90
22850;DHT22;11591;44.792;10.358;2023-07-29T13:15:06;30.70;99.90
22850;DHT22;11591;44.792;10.358;2023-07-29T13:17:33;30.70;99.90
22850;DHT22;11591;44.792;10.358;2023-07-29T13:19:58;30.60;99.90
22850;DHT22;11591;44.792;10.358;2023-07-29T13:22:24;30.50;99.90
22850;DHT22;11591;44.792;10.358;2023-07-29T13:24:50;30.50;99.90
22850;DHT22;11591;44.792;10.358;2023-07-29T13:27:16;30.50;99.90
22850;DHT22;11591;44.792;10.358;2023-07-29T13:29:42;30.50;99.90
22850;DHT22;11591;44.792;10.358;2023-07-29T13:32:09;30.60;99.90
22850;DHT22;11591;44.792;10.358;2023-07-29T13:34:35;30.60;99.90
22850;DHT22;11591;44.792;10.358;2023-07-29T13:37:01;30.70;99.90
22850;DHT22;11591;44.792;10.358;2023-07-29T13:39:27;30.90;99.90
22850;DHT22;11591;44.792;10.358;2023-07-29T13:41:53;31.00;99.90
22850;DHT22;11591;44.792;10.358;2023-07-29T13:44:20;31.10;99.90
22850;DHT22;11591;44.792;10.358;2023-07-29T13:46:45;31.20;99.90
22850;DHT22;11591;44.792;10.358;2023-07-29T13:49:11;31.30;99.90
22850;DHT22;11591;44.792;10.358;2023-07-29T13:51:37;31.40;99.90
22850;DHT22;11591;44.792;10.358;2023-07-29T13:54:03;31.50;99.90
22850;DHT22;11591;44.792;10.358;2023-07-29T13:56:29;31.60;99.90
22850;DHT22;11591;44.792;10.358;2023-07-29T13:58:54;31.70;99.90
22850;DHT22;11591;44.792;10.358;2023-07-29T14:01:20;31.80;99.90
22850;DHT22;11591;44.792;10.358;2023-07-29T14:03:46;32.00;99.90
22850;DHT22;11591;44.792;10.358;2023-07-29T14:06:12;32.10;99.90
22850;DHT22;11591;44.792;10.358;2023-07-29T14:08:38;32.10;99.90
22850;DHT22;11591;44.792;10.358;2023-07-29T14:11:06;32.10;99.90
22850;DHT22;11591;44.792;10.358;2023-07-29T14:13:32;32.20;99.90
22850;DHT22;11591;44.792;10.358;2023-07-29T14:16:02;32.20;99.90
22850;DHT22;11591;44.792;10.358;2023-07-29T14:18:28;32.30;99.90
22850;DHT22;11591;44.792;10.358;2023-07-29T14:20:54;32.40;99.90
22850;DHT22;11591;44.792;10.358;2023-07-29T14:23:20;32.50;99.90
22850;DHT22;11591;44.792;10.358;2023-07-29T14:25:46;32.50;99.90
22850;DHT22;11591;44.792;10.358;2023-07-29T14:28:13;32.60;99.90
22850;DHT22;11591;44.792;10.358;2023-07-29T14:30:39;32.60;99.90
22850;DHT22;11591;44.792;10.358;2023-07-29T14:33:07;32.60;99.90
22850;DHT22;11591;44.792;10.358;2023-07-29T14:35:33;32.60;99.90
22850;DHT22;11591;44.792;10.358;2023-07-29T14:37:59;32.60;99.90
22850;DHT22;11591;44.792;10.358;2023-07-29T14:40:25;32.60;99.90
22850;DHT22;11591;44.792;10.358;2023-07-29T14:42:51;32.80;99.90
22850;DHT22;11591;44.792;10.358;2023-07-29T14:45:16;32.80;99.90
22850;DHT22;11591;44.792;10.358;2023-07-29T14:47:42;32.80;99.90
22850;DHT22;11591;44.792;10.358;2023-07-29T14:50:08;32.80;99.90
22850;DHT22;11591;44.792;10.358;2023-07-29T14:52:34;32.80;99.90
22850;DHT22;11591;44.792;10.358;2023-07-29T14:55:00;33.10;99.90
22850;DHT22;11591;44.792;10.358;2023-07-29T14:57:25;33.60;99.90
22850;DHT22;11591;44.792;10.358;2023-07-29T14:59:51;33.70;99.90
22850;DHT22;11591;44.792;10.358;2023-07-29T15:02:17;33.80;99.90
22850;DHT22;11591;44.792;10.358;2023-07-29T15:04:43;33.80;99.90
22850;DHT22;11591;44.792;10.358;2023-07-29T15:07:09;33.60;99.90
22850;DHT22;11591;44.792;10.358;2023-07-29T15:09:35;33.40;99.90
22850;DHT22;11591;44.792;10.358;2023-07-29T15:12:01;33.20;99.90
22850;DHT22;11591;44.792;10.358;2023-07-29T15:14:27;33.10;99.90
22850;DHT22;11591;44.792;10.358;2023-07-29T15:16:53;32.90;99.90
22850;DHT22;11591;44.792;10.358;2023-07-29T15:19:19;32.80;99.90
22850;DHT22;11591;44.792;10.358;2023-07-29T15:21:45;32.70;99.90
22850;DHT22;11591;44.792;10.358;2023-07-29T15:24:11;33.00;99.90
22850;DHT22;11591;44.792;10.358;2023-07-29T15:26:37;33.60;99.90
22850;DHT22;11591;44.792;10.358;2023-07-29T15:29:02;34.20;99.90
22850;DHT22;11591;44.792;10.358;2023-07-29T15:31:28;34.80;99.90
22850;DHT22;11591;44.792;10.358;2023-07-29T15:33:54;35.40;99.30
22850;DHT22;11591;44.792;10.358;2023-07-29T15:36:20;35.90;98.90
22850;DHT22;11591;44.792;10.358;2023-07-29T15:38:46;36.30;98.50
22850;DHT22;11591;44.792;10.358;2023-07-29T15:41:12;36.60;98.20
22850;DHT22;11591;44.792;10.358;2023-07-29T15:43:38;36.90;98.10
22850;DHT22;11591;44.792;10.358;2023-07-29T15:46:03;37.00;96.70
22850;DHT22;11591;44.792;10.358;2023-07-29T15:48:29;36.80;96.30
22850;DHT22;11591;44.792;10.358;2023-07-29T15:50:55;36.50;95.90
22850;DHT22;11591;44.792;10.358;2023-07-29T15:53:21;36.20;95.40
22850;DHT22;11591;44.792;10.358;2023-07-29T15:55:46;36.10;95.50
22850;DHT22;11591;44.792;10.358;2023-07-29T15:58:12;36.20;95.30
22850;DHT22;11591;44.792;10.358;2023-07-29T16:00:38;36.50;96.00
22850;DHT22;11591;44.792;10.358;2023-07-29T16:03:04;36.60;95.70
22850;DHT22;11591;44.792;10.358;2023-07-29T16:05:30;36.80;95.80
22850;DHT22;11591;44.792;10.358;2023-07-29T16:07:56;36.90;95.10
22850;DHT22;11591;44.792;10.358;2023-07-29T16:10:23;37.00;94.20
22850;DHT22;11591;44.792;10.358;2023-07-29T16:12:49;36.90;93.30
22850;DHT22;11591;44.792;10.358;2023-07-29T16:15:15;36.80;92.90
22850;DHT22;11591;44.792;10.358;2023-07-29T16:17:40;36.50;93.20
22850;DHT22;11591;44.792;10.358;2023-07-29T16:20:07;36.30;93.30
22850;DHT22;11591;44.792;10.358;2023-07-29T16:22:33;36.20;92.90
22850;DHT22;11591;44.792;10.358;2023-07-29T16:25:01;36.00;93.30
22850;DHT22;11591;44.792;10.358;2023-07-29T16:27:27;35.80;93.10
22850;DHT22;11591;44.792;10.358;2023-07-29T16:30:00;35.70;93.10
22850;DHT22;11591;44.792;10.358;2023-07-29T16:32:26;35.40;93.60
22850;DHT22;11591;44.792;10.358;2023-07-29T16:34:52;35.30;93.20
22850;DHT22;11591;44.792;10.358;2023-07-29T16:37:18;35.30;93.60
22850;DHT22;11591;44.792;10.358;2023-07-29T16:39:44;35.10;93.80
22850;DHT22;11591;44.792;10.358;2023-07-29T16:42:10;35.00;94.00
22850;DHT22;11591;44.792;10.358;2023-07-29T16:44:35;35.00;93.70
22850;DHT22;11591;44.792;10.358;2023-07-29T16:47:01;35.00;93.70
22850;DHT22;11591;44.792;10.358;2023-07-29T16:49:27;35.00;93.70
22850;DHT22;11591;44.792;10.358;2023-07-29T16:51:53;35.00;94.00
22850;DHT22;11591;44.792;10.358;2023-07-29T16:54:20;34.90;94.10
22850;DHT22;11591;44.792;10.358;2023-07-29T16:56:47;34.90;94.30
22850;DHT22;11591;44.792;10.358;2023-07-29T16:59:13;34.80;93.90
22850;DHT22;11591;44.792;10.358;2023-07-29T17:01:39;34.70;94.10
22850;DHT22;11591;44.792;10.358;2023-07-29T17:04:05;34.60;94.10
22850;DHT22;11591;44.792;10.358;2023-07-29T17:06:31;34.50;94.30
22850;DHT22;11591;44.792;10.358;2023-07-29T17:08:56;34.50;94.30
22850;DHT22;11591;44.792;10.358;2023-07-29T17:11:22;34.40;94.60
22850;DHT22;11591;44.792;10.358;2023-07-29T17:13:48;34.40;94.80
22850;DHT22;11591;44.792;10.358;2023-07-29T17:16:14;34.50;94.70
22850;DHT22;11591;44.792;10.358;2023-07-29T17:18:39;34.50;94.70
22850;DHT22;11591;44.792;10.358;2023-07-29T17:21:05;34.50;94.30
22850;DHT22;11591;44.792;10.358;2023-07-29T17:23:31;34.50;94.40
22850;DHT22;11591;44.792;10.358;2023-07-29T17:25:57;34.50;94.50
22850;DHT22;11591;44.792;10.358;2023-07-29T17:28:22;34.40;94.50
22850;DHT22;11591;44.792;10.358;2023-07-29T17:30:49;34.30;94.50
22850;DHT22;11591;44.792;10.358;2023-07-29T17:33:17;34.20;94.60
22850;DHT22;11591;44.792;10.358;2023-07-29T17:35:43;34.30;94.60
22850;DHT22;11591;44.792;10.358;2023-07-29T17:38:09;34.20;94.70
22850;DHT22;11591;44.792;10.358;2023-07-29T17:40:35;34.10;94.70
22850;DHT22;11591;44.792;10.358;2023-07-29T17:43:01;34.00;95.00
22850;DHT22;11591;44.792;10.358;2023-07-29T17:45:27;34.10;95.00
22850;DHT22;11591;44.792;10.358;2023-07-29T17:47:53;34.20;95.00
22850;DHT22;11591;44.792;10.358;2023-07-29T17:50:19;34.10;95.00
22850;DHT22;11591;44.792;10.358;2023-07-29T17:52:48;34.00;95.00
22850;DHT22;11591;44.792;10.358;2023-07-29T17:55:14;33.90;95.20
22850;DHT22;11591;44.792;10.358;2023-07-29T17:57:39;33.90;95.30
22850;DHT22;11591;44.792;10.358;2023-07-29T18:00:06;33.80;95.30
22850;DHT22;11591;44.792;10.358;2023-07-29T18:02:32;33.80;95.50
22850;DHT22;11591;44.792;10.358;2023-07-29T18:04:58;33.70;95.50
22850;DHT22;11591;44.792;10.358;2023-07-29T18:07:26;33.60;95.50
22850;DHT22;11591;44.792;10.358;2023-07-29T18:09:52;33.50;95.50
22850;DHT22;11591;44.792;10.358;2023-07-29T18:12:18;33.30;95.80
22850;DHT22;11591;44.792;10.358;2023-07-29T18:14:43;33.10;95.70
22850;DHT22;11591;44.792;10.358;2023-07-29T18:17:10;33.00;95.80
22850;DHT22;11591;44.792;10.358;2023-07-29T18:19:36;32.90;95.80
22850;DHT22;11591;44.792;10.358;2023-07-29T18:22:07;32.70;96.00
22850;DHT22;11591;44.792;10.358;2023-07-29T18:24:33;32.70;95.80
22850;DHT22;11591;44.792;10.358;2023-07-29T18:26:58;32.50;95.90
22850;DHT22;11591;44.792;10.358;2023-07-29T18:29:24;32.20;96.20
22850;DHT22;11591;44.792;10.358;2023-07-29T18:31:50;32.10;96.30
22850;DHT22;11591;44.792;10.358;2023-07-29T18:34:18;31.90;96.50
22850;DHT22;11591;44.792;10.358;2023-07-29T18:36:48;31.80;96.60
22850;DHT22;11591;44.792;10.358;2023-07-29T18:39:13;31.60;96.80
22850;DHT22;11591;44.792;10.358;2023-07-29T18:41:40;31.50;97.00
22850;DHT22;11591;44.792;10.358;2023-07-29T18:44:06;31.30;97.00
22850;DHT22;11591;44.792;10.358;2023-07-29T18:46:31;31.10;97.20
22850;DHT22;11591;44.792;10.358;2023-07-29T18:48:57;31.00;97.30
22850;DHT22;11591;44.792;10.358;2023-07-29T18:51:24;30.90;97.40
22850;DHT22;11591;44.792;10.358;2023-07-29T18:53:50;30.70;97.50
22850;DHT22;11591;44.792;10.358;2023-07-29T18:56:16;30.60;97.60
22850;DHT22;11591;44.792;10.358;2023-07-29T18:58:42;30.50;97.70
22850;DHT22;11591;44.792;10.358;2023-07-29T19:01:07;30.40;97.90
22850;DHT22;11591;44.792;10.358;2023-07-29T19:03:36;30.30;98.00
22850;DHT22;11591;44.792;10.358;2023-07-29T19:06:02;30.20;98.00
22850;DHT22;11591;44.792;10.358;2023-07-29T19:08:28;30.20;98.20
22850;DHT22;11591;44.792;10.358;2023-07-29T19:10:54;30.10;98.30
22850;DHT22;11591;44.792;10.358;2023-07-29T19:13:20;30.10;98.40
22850;DHT22;11591;44.792;10.358;2023-07-29T19:15:50;30.00;98.40
22850;DHT22;11591;44.792;10.358;2023-07-29T19:18:16;30.00;98.50
22850;DHT22;11591;44.792;10.358;2023-07-29T19:20:42;29.90;98.60
22850;DHT22;11591;44.792;10.358;2023-07-29T19:23:10;29.90;98.80
22850;DHT22;11591;44.792;10.358;2023-07-29T19:25:43;29.80;98.80
22850;DHT22;11591;44.792;10.358;2023-07-29T19:28:09;29.80;98.90
22850;DHT22;11591;44.792;10.358;2023-07-29T19:30:35;29.70;98.90
22850;DHT22;11591;44.792;10.358;2023-07-29T19:33:01;29.70;99.00
22850;DHT22;11591;44.792;10.358;2023-07-29T19:35:27;29.60;99.10
22850;DHT22;11591;44.792;10.358;2023-07-29T19:37:52;29.60;99.20
22850;DHT22;11591;44.792;10.358;2023-07-29T19:40:18;29.60;99.30
22850;DHT22;11591;44.792;10.358;2023-07-29T19:42:44;29.50;99.30
22850;DHT22;11591;44.792;10.358;2023-07-29T19:45:10;29.50;99.40
22850;DHT22;11591;44.792;10.358;2023-07-29T19:47:36;29.40;99.50
22850;DHT22;11591;44.792;10.358;2023-07-29T19:50:01;29.30;99.70
22850;DHT22;11591;44.792;10.358;2023-07-29T19:52:27;29.20;99.70
22850;DHT22;11591;44.792;10.358;2023-07-29T19:54:53;29.20;99.80
22850;DHT22;11591;44.792;10.358;2023-07-29T19:57:19;29.10;99.80
22850;DHT22;11591;44.792;10.358;2023-07-29T19:59:45;29.10;99.90
22850;DHT22;11591;44.792;10.358;2023-07-29T20:02:10;29.00;99.90
22850;DHT22;11591;44.792;10.358;2023-07-29T20:04:36;28.90;99.90
22850;DHT22;11591;44.792;10.358;2023-07-29T20:07:02;28.90;99.90
22850;DHT22;11591;44.792;10.358;2023-07-29T20:09:28;28.80;99.90
22850;DHT22;11591;44.792;10.358;2023-07-29T20:11:54;28.70;99.90
22850;DHT22;11591;44.792;10.358;2023-07-29T20:14:20;28.70;99.90
22850;DHT22;11591;44.792;10.358;2023-07-29T20:16:45;28.70;99.90
22850;DHT22;11591;44.792;10.358;2023-07-29T20:19:11;28.60;99.90
22850;DHT22;11591;44.792;10.358;2023-07-29T20:21:38;28.50;99.90
22850;DHT22;11591;44.792;10.358;2023-07-29T20:24:04;28.40;99.90
22850;DHT22;11591;44.792;10.358;2023-07-29T20:26:30;28.40;99.90
22850;DHT22;11591;44.792;10.358;2023-07-29T20:29:00;28.40;99.90
22850;DHT22;11591;44.792;10.358;2023-07-29T20:31:26;28.40;99.90
22850;DHT22;11591;44.792;10.358;2023-07-29T20:33:52;28.30;99.90
22850;DHT22;11591;44.792;10.358;2023-07-29T20:36:18;28.30;99.90
22850;DHT22;11591;44.792;10.358;2023-07-29T20:38:43;28.20;99.90
22850;DHT22;11591;44.792;10.358;2023-07-29T20:41:09;28.20;99.90
22850;DHT22;11591;44.792;10.358;2023-07-29T20:43:35;28.20;99.90
22850;DHT22;11591;44.792;10.358;2023-07-29T20:46:01;28.20;99.90
22850;DHT22;11591;44.792;10.358;2023-07-29T20:48:26;28.10;99.90